Terminal Aerodrome Forecast
Issued by NWS

Home | Current Version | Previous Version | Text Only | Print | Product List | Glossary On
Versions: 1 2 3 4 5 6 7 8 9 10 11 12 13 14 15 16 17
719
FTUS43 KDTX 291122
TAFMBS
TAF
KMBS 291122Z 2912/3012 02010KT P6SM SCT025 OVC040
     FM291700 04010KT P6SM BKN080
     FM292200 05012KT 6SM -RA OVC040
     FM300100 06014G21KT 5SM -RA SCT025 OVC040
     FM300500 06014G21KT 3SM -RA BKN018 OVC025=

USA.gov is the U.S. government's official web portal to all federal, state and local government web resources and services.